Time;durP1;ratioP1;P1;durP2;ratioP2;P2;SDS_P1;SDS_P2;PMS_P1;PMS_P2;Temp;Humidity;BMP_temperature;BMP_pressure;BME280_temperature;BME280_humidity;BME280_pressure;Samples;Min_cycle;Max_cycle;Signal;HPM_P1;HPM_P2
2024/05/03 00:00:44;;;;;;;2.85;0.77;;;;;;;;;;5266572;27;20013;-85
2024/05/03 00:03:10;;;;;;;1.17;0.80;;;;;;;;;;5281915;27;20018;-86
2024/05/03 00:05:36;;;;;;;3.10;0.80;;;;;;;;;;5281996;27;19999;-86
2024/05/03 00:08:02;;;;;;;1.92;0.70;;;;;;;;;;5251461;27;19998;-87
2024/05/03 00:10:28;;;;;;;1.33;0.73;;;;;;;;;;5281678;27;19998;-84
2024/05/03 00:12:54;;;;;;;0.93;0.70;;;;;;;;;;5253806;27;20010;-85
2024/05/03 00:15:21;;;;;;;3.25;0.73;;;;;;;;;;5265093;27;19994;-82
2024/05/03 00:17:47;;;;;;;0.80;0.60;;;;;;;;;;5263598;27;20014;-85
2024/05/03 00:20:13;;;;;;;2.72;0.80;;;;;;;;;;5244011;27;20017;-84
2024/05/03 00:22:42;;;;;;;0.90;0.65;;;;;;;;;;5282604;27;20057;-85
2024/05/03 00:25:08;;;;;;;3.05;0.75;;;;;;;;;;5252900;27;20034;-85
2024/05/03 00:27:35;;;;;;;4.65;0.90;;;;;;;;;;5283717;27;19999;-84
2024/05/03 00:30:01;;;;;;;2.55;0.60;;;;;;;;;;5263988;27;20006;-84
2024/05/03 00:32:27;;;;;;;0.80;0.60;;;;;;;;;;5254366;27;20459;-83
2024/05/03 00:34:53;;;;;;;2.05;0.80;;;;;;;;;;5254449;27;20060;-86
2024/05/03 00:37:19;;;;;;;4.07;0.65;;;;;;;;;;5284019;27;20006;-83
2024/05/03 00:39:45;;;;;;;1.35;0.70;;;;;;;;;;5273866;27;20003;-84
2024/05/03 00:42:11;;;;;;;4.90;0.73;;;;;;;;;;5255796;27;20002;-87
2024/05/03 00:44:37;;;;;;;0.70;0.60;;;;;;;;;;5251207;27;20038;-84
2024/05/03 00:47:04;;;;;;;2.92;1.13;;;;;;;;;;5249832;27;20095;-83
2024/05/03 00:49:31;;;;;;;2.55;1.02;;;;;;;;;;5250566;27;20007;-85
2024/05/03 00:51:57;;;;;;;2.08;0.95;;;;;;;;;;5250092;27;20009;-83
2024/05/03 00:54:24;;;;;;;1.40;0.88;;;;;;;;;;5221924;27;20015;-84
2024/05/03 00:56:52;;;;;;;0.77;0.70;;;;;;;;;;5251882;27;19999;-82
2024/05/03 00:59:19;;;;;;;4.43;0.80;;;;;;;;;;5228529;27;20014;-85
2024/05/03 01:01:45;;;;;;;4.53;0.90;;;;;;;;;;5283030;27;20452;-85
2024/05/03 01:04:12;;;;;;;2.13;0.63;;;;;;;;;;5257332;27;20007;-86
2024/05/03 01:06:38;;;;;;;2.78;0.70;;;;;;;;;;5254569;27;20015;-81
2024/05/03 01:09:04;;;;;;;3.55;0.80;;;;;;;;;;5252824;27;20009;-86
2024/05/03 01:11:31;;;;;;;1.00;0.77;;;;;;;;;;5282424;27;20002;-84
2024/05/03 01:13:57;;;;;;;1.17;0.82;;;;;;;;;;5224250;27;20007;-82
2024/05/03 01:16:23;;;;;;;1.05;0.65;;;;;;;;;;5220002;27;20034;-83
2024/05/03 01:18:49;;;;;;;1.67;0.68;;;;;;;;;;5218974;27;20003;-81
2024/05/03 01:21:15;;;;;;;2.28;0.60;;;;;;;;;;5219551;27;19995;-84
2024/05/03 01:23:41;;;;;;;3.25;1.00;;;;;;;;;;5220793;27;20018;-84
2024/05/03 01:26:08;;;;;;;0.88;0.88;;;;;;;;;;5249783;27;19999;-85
2024/05/03 01:28:34;;;;;;;2.03;1.00;;;;;;;;;;5250041;27;20051;-81
2024/05/03 01:31:00;;;;;;;1.38;0.80;;;;;;;;;;5221207;27;19999;-84
2024/05/03 01:33:26;;;;;;;3.33;0.85;;;;;;;;;;5250065;27;20039;-85
2024/05/03 01:35:52;;;;;;;2.17;0.70;;;;;;;;;;5249603;27;19999;-82
2024/05/03 01:38:18;;;;;;;2.25;0.70;;;;;;;;;;5245963;27;20017;-82
2024/05/03 01:40:44;;;;;;;5.70;0.93;;;;;;;;;;5252427;27;20038;-85
2024/05/03 01:43:10;;;;;;;3.22;0.82;;;;;;;;;;5283127;27;20030;-85
2024/05/03 01:45:36;;;;;;;1.20;1.00;;;;;;;;;;5253669;27;20446;-85
2024/05/03 01:48:03;;;;;;;1.38;0.80;;;;;;;;;;5226082;27;20017;-84
2024/05/03 01:50:29;;;;;;;3.58;1.10;;;;;;;;;;5249332;27;19994;-83
2024/05/03 01:52:55;;;;;;;4.00;1.40;;;;;;;;;;5219310;27;20035;-83
2024/05/03 01:55:21;;;;;;;1.38;0.70;;;;;;;;;;5218980;27;20007;-80
2024/05/03 01:57:47;;;;;;;1.73;1.00;;;;;;;;;;5216938;27;20007;-80
2024/05/03 02:00:13;;;;;;;6.25;0.95;;;;;;;;;;5247384;27;20011;-81
2024/05/03 02:02:39;;;;;;;1.50;0.80;;;;;;;;;;5264330;27;20075;-84
2024/05/03 02:05:05;;;;;;;1.55;0.90;;;;;;;;;;5281482;27;19998;-82
2024/05/03 02:07:31;;;;;;;4.32;0.80;;;;;;;;;;5251494;27;20002;-85
2024/05/03 02:09:57;;;;;;;1.15;0.73;;;;;;;;;;5250062;27;20003;-83
2024/05/03 02:12:23;;;;;;;3.33;1.20;;;;;;;;;;5247688;27;20027;-85
2024/05/03 02:14:49;;;;;;;1.80;0.95;;;;;;;;;;5246999;27;20009;-84
2024/05/03 02:17:15;;;;;;;1.40;0.88;;;;;;;;;;5237614;27;20017;-81
2024/05/03 02:19:41;;;;;;;2.95;0.90;;;;;;;;;;5253134;27;20006;-81
2024/05/03 02:22:07;;;;;;;3.50;1.00;;;;;;;;;;5280913;27;20047;-84
2024/05/03 02:24:34;;;;;;;3.53;0.93;;;;;;;;;;5280082;27;20009;-82
2024/05/03 02:27:00;;;;;;;3.22;0.98;;;;;;;;;;5279292;27;20006;-81
2024/05/03 02:29:26;;;;;;;3.60;1.05;;;;;;;;;;5230364;27;20051;-81
2024/05/03 02:31:52;;;;;;;3.40;0.82;;;;;;;;;;5217490;27;20003;-85
2024/05/03 02:34:18;;;;;;;3.13;1.02;;;;;;;;;;5218348;27;20336;-85
2024/05/03 02:36:44;;;;;;;2.10;1.40;;;;;;;;;;5230628;27;20021;-84
2024/05/03 02:39:10;;;;;;;2.30;1.00;;;;;;;;;;5281618;27;20009;-84
2024/05/03 02:41:36;;;;;;;1.38;0.98;;;;;;;;;;5260537;27;20046;-83
2024/05/03 02:44:02;;;;;;;1.30;0.95;;;;;;;;;;5217380;27;20010;-84
2024/05/03 02:46:28;;;;;;;1.20;0.90;;;;;;;;;;5246126;27;19995;-80
2024/05/03 02:48:54;;;;;;;1.52;0.98;;;;;;;;;;5245443;27;20010;-84
2024/05/03 02:51:20;;;;;;;3.15;1.10;;;;;;;;;;5217521;27;19995;-84
2024/05/03 02:53:46;;;;;;;1.42;0.95;;;;;;;;;;5229502;27;20002;-83
2024/05/03 02:56:12;;;;;;;2.45;1.10;;;;;;;;;;5279567;27;20021;-84
2024/05/03 02:58:38;;;;;;;1.27;1.10;;;;;;;;;;5250895;27;20014;-83
2024/05/03 03:01:08;;;;;;;1.85;1.10;;;;;;;;;;5251304;27;19994;-83
2024/05/03 03:03:34;;;;;;;4.75;1.20;;;;;;;;;;5281128;27;20045;-86
2024/05/03 03:06:03;;;;;;;5.05;1.10;;;;;;;;;;5251005;27;20075;-86
2024/05/03 03:08:29;;;;;;;3.33;0.88;;;;;;;;;;5217518;27;20129;-85
2024/05/03 03:10:56;;;;;;;2.22;1.10;;;;;;;;;;5218245;27;20014;-84
2024/05/03 03:13:22;;;;;;;2.10;1.25;;;;;;;;;;5218036;27;20039;-84
2024/05/03 03:15:48;;;;;;;2.97;1.25;;;;;;;;;;5248113;27;20007;-86
2024/05/03 03:18:14;;;;;;;1.77;1.05;;;;;;;;;;5246384;27;20013;-85
2024/05/03 03:20:40;;;;;;;4.60;1.60;;;;;;;;;;5251863;27;20030;-85
2024/05/03 03:23:07;;;;;;;3.00;1.20;;;;;;;;;;5251275;27;20003;-87
2024/05/03 03:25:33;;;;;;;2.45;1.17;;;;;;;;;;5219710;27;20003;-85
2024/05/03 03:27:59;;;;;;;3.45;1.30;;;;;;;;;;5248998;27;19998;-85
2024/05/03 03:30:25;;;;;;;5.03;1.20;;;;;;;;;;5252480;27;20002;-86
2024/05/03 03:32:54;;;;;;;1.35;0.95;;;;;;;;;;5284561;27;19998;-87
2024/05/03 03:35:20;;;;;;;3.88;1.30;;;;;;;;;;5255853;27;20072;-86
2024/05/03 03:37:46;;;;;;;3.05;1.05;;;;;;;;;;5257287;27;19995;-84
2024/05/03 03:40:12;;;;;;;3.85;1.50;;;;;;;;;;5220706;27;19999;-86
2024/05/03 03:42:42;;;;;;;1.92;1.15;;;;;;;;;;5250620;27;20010;-87
2024/05/03 03:45:08;;;;;;;2.70;1.33;;;;;;;;;;5233591;27;20387;-85
2024/05/03 03:47:40;;;;;;;3.83;1.88;;;;;;;;;;5257335;27;19999;-86
2024/05/03 03:50:09;;;;;;;1.67;1.10;;;;;;;;;;5244561;27;20010;-85
2024/05/03 03:52:35;;;;;;;1.83;1.10;;;;;;;;;;5249879;27;20505;-85
2024/05/03 03:55:01;;;;;;;3.80;1.20;;;;;;;;;;5280080;27;20356;-86
2024/05/03 03:57:27;;;;;;;1.92;1.30;;;;;;;;;;5228523;27;20445;-86
2024/05/03 03:59:53;;;;;;;3.85;1.77;;;;;;;;;;5231034;27;20059;-85
2024/05/03 04:02:19;;;;;;;7.32;1.83;;;;;;;;;;5283042;27;19999;-86
2024/05/03 04:04:45;;;;;;;4.38;1.52;;;;;;;;;;5263536;27;19999;-86
2024/05/03 04:07:13;;;;;;;2.53;1.15;;;;;;;;;;5270509;27;20003;-85
2024/05/03 04:09:39;;;;;;;2.78;1.35;;;;;;;;;;5223446;27;19994;-86
2024/05/03 04:12:05;;;;;;;2.22;1.45;;;;;;;;;;5223174;27;19995;-85
2024/05/03 04:14:31;;;;;;;3.25;1.38;;;;;;;;;;5233495;27;20010;-84
2024/05/03 04:16:57;;;;;;;3.33;1.73;;;;;;;;;;5255676;27;20030;-85
2024/05/03 04:19:24;;;;;;;2.40;1.40;;;;;;;;;;5256354;27;20052;-86
2024/05/03 04:21:50;;;;;;;2.83;1.17;;;;;;;;;;5287697;27;19995;-87
2024/05/03 04:24:16;;;;;;;2.97;1.20;;;;;;;;;;5258302;27;20418;-86
2024/05/03 04:26:43;;;;;;;4.10;1.50;;;;;;;;;;5249566;27;20002;-87
2024/05/03 04:29:10;;;;;;;3.20;1.60;;;;;;;;;;5256203;27;20013;-85
2024/05/03 04:31:39;;;;;;;3.85;1.50;;;;;;;;;;5256823;27;19998;-86
2024/05/03 04:34:05;;;;;;;4.90;1.90;;;;;;;;;;5255253;27;19998;-87
2024/05/03 04:36:31;;;;;;;4.70;1.60;;;;;;;;;;5274941;27;20026;-86
2024/05/03 04:38:57;;;;;;;3.92;1.40;;;;;;;;;;5230831;27;20010;-87
2024/05/03 04:41:23;;;;;;;3.08;1.83;;;;;;;;;;5222764;27;19999;-89
2024/05/03 04:43:49;;;;;;;2.83;1.67;;;;;;;;;;5225606;27;20006;-88
2024/05/03 04:46:16;;;;;;;7.05;1.50;;;;;;;;;;5228328;27;20006;-88
2024/05/03 04:48:42;;;;;;;6.93;1.83;;;;;;;;;;5259524;27;20077;-87
2024/05/03 04:51:08;;;;;;;5.30;1.35;;;;;;;;;;5254175;27;20051;-87
2024/05/03 04:53:34;;;;;;;4.32;1.65;;;;;;;;;;5222489;27;20029;-83
2024/05/03 04:56:00;;;;;;;3.35;1.48;;;;;;;;;;5250518;27;19999;-88
2024/05/03 04:58:26;;;;;;;7.95;2.30;;;;;;;;;;5278526;27;20067;-89
2024/05/03 05:00:52;;;;;;;6.43;1.85;;;;;;;;;;5251766;27;19999;-86
2024/05/03 05:03:18;;;;;;;4.55;1.45;;;;;;;;;;5223315;27;19995;-88
2024/05/03 05:05:45;;;;;;;3.10;1.70;;;;;;;;;;5253140;27;20003;-85
2024/05/03 05:08:11;;;;;;;4.38;1.58;;;;;;;;;;5286275;27;20023;-87
2024/05/03 05:10:37;;;;;;;7.82;1.80;;;;;;;;;;5262359;27;20002;-91
2024/05/03 05:13:04;;;;;;;5.55;1.38;;;;;;;;;;5260274;27;20006;-86
2024/05/03 05:15:30;;;;;;;7.47;1.42;;;;;;;;;;5240220;27;20006;-89
2024/05/03 05:17:57;;;;;;;4.00;1.50;;;;;;;;;;5260915;27;20003;-89
2024/05/03 05:20:28;;;;;;;4.95;1.67;;;;;;;;;;5257598;27;20000;-85
2024/05/03 05:22:54;;;;;;;5.22;1.98;;;;;;;;;;5258411;27;20009;-88
2024/05/03 05:25:21;;;;;;;5.95;1.70;;;;;;;;;;5285446;27;20002;-84
2024/05/03 05:27:47;;;;;;;5.95;1.48;;;;;;;;;;5259396;27;20031;-86
2024/05/03 05:30:13;;;;;;;3.15;1.70;;;;;;;;;;5281663;27;20003;-85
2024/05/03 05:32:39;;;;;;;3.95;1.75;;;;;;;;;;5220876;27;20003;-87
2024/05/03 05:35:05;;;;;;;2.30;1.40;;;;;;;;;;5249454;27;19999;-83
2024/05/03 05:37:34;;;;;;;8.15;1.50;;;;;;;;;;5249480;27;20007;-86
2024/05/03 05:40:00;;;;;;;4.93;1.52;;;;;;;;;;5275098;27;20061;-85
2024/05/03 05:42:26;;;;;;;2.80;1.90;;;;;;;;;;5252443;27;20026;-84
2024/05/03 05:44:54;;;;;;;4.45;1.65;;;;;;;;;;5232713;27;20039;-84
2024/05/03 05:47:20;;;;;;;4.57;2.22;;;;;;;;;;5252004;27;20007;-84
2024/05/03 05:49:47;;;;;;;1.88;1.45;;;;;;;;;;5272036;27;20006;-83
2024/05/03 05:52:13;;;;;;;3.65;1.58;;;;;;;;;;5283038;27;20179;-86
2024/05/03 05:54:39;;;;;;;3.10;1.60;;;;;;;;;;5283676;27;20351;-80
2024/05/03 05:57:06;;;;;;;4.75;1.45;;;;;;;;;;5248411;27;20014;-82
2024/05/03 05:59:33;;;;;;;5.95;1.30;;;;;;;;;;5194784;27;20007;-83
2024/05/03 06:02:00;;;;;;;3.35;1.48;;;;;;;;;;5231268;27;20330;-84
2024/05/03 06:04:28;;;;;;;5.10;1.52;;;;;;;;;;5292993;27;19998;-91
2024/05/03 06:06:55;;;;;;;2.25;1.50;;;;;;;;;;5264286;27;19999;-88
2024/05/03 06:09:26;;;;;;;3.13;1.70;;;;;;;;;;5270776;27;20002;-86
2024/05/03 06:12:11;;;;;;;9.40;1.60;;;;;;;;;;5234893;27;20005;-81
2024/05/03 06:14:37;;;;;;;3.38;1.70;;;;;;;;;;5254565;27;20014;-87
2024/05/03 06:17:04;;;;;;;3.95;1.33;;;;;;;;;;5256177;27;20010;-85
2024/05/03 06:19:33;;;;;;;8.52;1.50;;;;;;;;;;5292341;27;19998;-87
2024/05/03 06:22:00;;;;;;;4.15;1.58;;;;;;;;;;5278687;27;19998;-86
2024/05/03 06:24:48;;;;;;;2.85;1.50;;;;;;;;;;5260682;27;19999;-88
2024/05/03 06:27:14;;;;;;;4.25;1.60;;;;;;;;;;5227197;27;20026;-89
2024/05/03 06:30:17;;;;;;;6.85;1.58;;;;;;;;;;5486129;26;20344;-86
2024/05/03 06:32:43;;;;;;;4.20;1.60;;;;;;;;;;5454601;26;20439;-91
2024/05/03 06:35:09;;;;;;;5.95;1.58;;;;;;;;;;5485893;26;20003;-88
2024/05/03 06:37:37;;;;;;;3.15;1.50;;;;;;;;;;5431572;26;20000;-88
2024/05/03 06:40:25;;;;;;;5.95;1.60;;;;;;;;;;5418387;26;20423;-80
2024/05/03 06:42:52;;;;;;;4.13;1.70;;;;;;;;;;5425359;26;20035;-86
2024/05/03 06:45:20;;;;;;;5.25;1.38;;;;;;;;;;5413363;26;20007;-83
2024/05/03 06:47:47;;;;;;;4.55;1.55;;;;;;;;;;5413044;26;20014;-85
2024/05/03 06:50:13;;;;;;;6.75;1.60;;;;;;;;;;5445739;26;20003;-87
2024/05/03 06:52:42;;;;;;;7.93;1.70;;;;;;;;;;5412684;26;20011;-84
2024/05/03 06:55:08;;;;;;;4.72;1.67;;;;;;;;;;5443669;26;19999;-83
2024/05/03 06:57:34;;;;;;;6.70;1.40;;;;;;;;;;5414843;26;20003;-87
2024/05/03 07:00:00;;;;;;;6.38;1.58;;;;;;;;;;5415153;26;20009;-87
2024/05/03 07:02:26;;;;;;;2.50;1.60;;;;;;;;;;5413060;26;20072;-85
2024/05/03 07:04:52;;;;;;;6.40;1.67;;;;;;;;;;5412040;26;20045;-88
2024/05/03 07:07:18;;;;;;;7.55;1.83;;;;;;;;;;5413274;26;19995;-87
2024/05/03 07:09:45;;;;;;;5.60;1.70;;;;;;;;;;5392745;26;20012;-88
2024/05/03 07:12:14;;;;;;;6.28;1.70;;;;;;;;;;5380088;26;20003;-83
2024/05/03 07:14:40;;;;;;;4.22;1.40;;;;;;;;;;5415987;26;20038;-80
2024/05/03 07:17:06;;;;;;;2.80;1.70;;;;;;;;;;5414952;26;20016;-83
2024/05/03 07:19:32;;;;;;;5.88;1.85;;;;;;;;;;5406750;26;20018;-79
2024/05/03 07:21:58;;;;;;;3.47;1.60;;;;;;;;;;5443839;26;20423;-79
2024/05/03 07:24:24;;;;;;;6.00;1.52;;;;;;;;;;5409146;26;20349;-88
2024/05/03 07:26:52;;;;;;;2.80;1.63;;;;;;;;;;5409717;26;20436;-80
2024/05/03 07:29:19;;;;;;;6.93;1.65;;;;;;;;;;5438663;26;19996;-79
2024/05/03 07:31:45;;;;;;;6.07;1.48;;;;;;;;;;5442089;26;20035;-78
2024/05/03 07:34:13;;;;;;;6.03;1.45;;;;;;;;;;5406465;26;20424;-78
2024/05/03 07:36:40;;;;;;;6.32;1.58;;;;;;;;;;5436749;26;20010;-82
2024/05/03 07:39:09;;;;;;;8.10;1.90;;;;;;;;;;5406394;26;20003;-81
2024/05/03 07:41:36;;;;;;;5.70;1.42;;;;;;;;;;5424054;26;19995;-79
2024/05/03 07:44:03;;;;;;;4.95;1.48;;;;;;;;;;5394777;26;20013;-78
2024/05/03 07:46:33;;;;;;;8.63;1.70;;;;;;;;;;5394838;26;20006;-79
2024/05/03 07:48:59;;;;;;;5.22;1.80;;;;;;;;;;5394517;26;19992;-78
2024/05/03 07:51:26;;;;;;;4.80;1.67;;;;;;;;;;5423852;26;20005;-82
2024/05/03 07:53:52;;;;;;;4.35;1.45;;;;;;;;;;5393424;26;19996;-81
2024/05/03 07:56:18;;;;;;;5.50;1.50;;;;;;;;;;5394032;26;20064;-80
2024/05/03 07:58:44;;;;;;;3.60;1.60;;;;;;;;;;5365553;26;20012;-79
2024/05/03 08:01:14;;;;;;;4.85;1.58;;;;;;;;;;5424969;26;19995;-84
2024/05/03 08:03:40;;;;;;;10.95;1.80;;;;;;;;;;5389801;26;20006;-79
2024/05/03 08:06:06;;;;;;;4.28;1.40;;;;;;;;;;5422494;26;20003;-81
2024/05/03 08:08:34;;;;;;;3.95;1.38;;;;;;;;;;5397441;26;19996;-85
2024/05/03 08:11:00;;;;;;;3.75;1.50;;;;;;;;;;5397917;26;19992;-84
2024/05/03 08:13:28;;;;;;;5.00;1.90;;;;;;;;;;5429675;26;20010;-88
2024/05/03 08:15:55;;;;;;;4.43;1.48;;;;;;;;;;5395952;26;19999;-82
2024/05/03 08:18:28;;;;;;;4.32;1.60;;;;;;;;;;5394860;26;20007;-83
2024/05/03 08:20:55;;;;;;;8.45;1.73;;;;;;;;;;5373165;26;20003;-84
2024/05/03 08:23:24;;;;;;;5.45;1.48;;;;;;;;;;5369449;26;20025;-80
2024/05/03 08:25:50;;;;;;;5.57;1.48;;;;;;;;;;5396909;26;20438;-82
2024/05/03 08:28:16;;;;;;;1.73;1.35;;;;;;;;;;5395429;26;19995;-81
2024/05/03 08:30:42;;;;;;;9.45;1.60;;;;;;;;;;5397240;26;19988;-84
2024/05/03 08:33:09;;;;;;;7.35;1.50;;;;;;;;;;5394940;26;20006;-80
2024/05/03 08:35:35;;;;;;;6.38;1.60;;;;;;;;;;5425913;26;20031;-79
2024/05/03 08:38:01;;;;;;;5.45;2.35;;;;;;;;;;5425932;26;19995;-80
2024/05/03 08:40:27;;;;;;;6.70;2.13;;;;;;;;;;5426925;26;20001;-81
2024/05/03 08:43:13;;;;;;;8.95;1.92;;;;;;;;;;5395863;26;20451;-79
2024/05/03 08:45:42;;;;;;;5.43;1.48;;;;;;;;;;5425954;26;20019;-81
2024/05/03 08:48:10;;;;;;;6.40;1.80;;;;;;;;;;5395944;26;20003;-83
2024/05/03 08:50:37;;;;;;;4.38;1.85;;;;;;;;;;5368112;26;20002;-83
2024/05/03 08:53:23;;;;;;;9.98;1.70;;;;;;;;;;5367136;26;19992;-84
2024/05/03 08:55:52;;;;;;;6.68;2.20;;;;;;;;;;5361860;26;20007;-84
2024/05/03 08:58:20;;;;;;;7.82;1.90;;;;;;;;;;5398313;26;19992;-86
2024/05/03 09:00:48;;;;;;;4.93;2.15;;;;;;;;;;5397259;26;19999;-81
2024/05/03 09:03:15;;;;;;;9.38;2.15;;;;;;;;;;5426523;26;19991;-82
2024/05/03 09:05:43;;;;;;;6.07;1.88;;;;;;;;;;5395709;26;20012;-84
2024/05/03 09:08:09;;;;;;;6.95;2.28;;;;;;;;;;5396534;26;20027;-82
2024/05/03 09:10:35;;;;;;;10.23;3.10;;;;;;;;;;5427871;26;20024;-86
2024/05/03 09:13:01;;;;;;;6.43;3.40;;;;;;;;;;5428204;26;20003;-84
2024/05/03 09:15:28;;;;;;;8.65;2.22;;;;;;;;;;5428073;26;20457;-86
2024/05/03 09:18:01;;;;;;;3.53;1.75;;;;;;;;;;5427726;26;20011;-82
2024/05/03 09:20:28;;;;;;;10.57;2.25;;;;;;;;;;5428661;26;19999;-82
2024/05/03 09:22:55;;;;;;;9.93;2.53;;;;;;;;;;5424234;26;19995;-83
2024/05/03 09:25:21;;;;;;;7.70;3.33;;;;;;;;;;5425146;26;20034;-81
2024/05/03 09:27:55;;;;;;;7.07;2.95;;;;;;;;;;5426854;26;20010;-82
2024/05/03 09:30:22;;;;;;;6.22;2.35;;;;;;;;;;5424660;26;19999;-81
2024/05/03 09:32:50;;;;;;;5.57;2.00;;;;;;;;;;5425174;26;20432;-83
2024/05/03 09:35:16;;;;;;;6.65;1.70;;;;;;;;;;5392543;26;20429;-87
2024/05/03 09:37:42;;;;;;;9.73;2.15;;;;;;;;;;5424830;26;19999;-83
2024/05/03 09:40:09;;;;;;;7.70;1.70;;;;;;;;;;5393988;26;20018;-86
2024/05/03 09:42:35;;;;;;;6.00;1.70;;;;;;;;;;5426241;26;20000;-84
2024/05/03 09:45:04;;;;;;;5.15;1.67;;;;;;;;;;5427651;26;19996;-82
2024/05/03 09:47:31;;;;;;;5.45;2.15;;;;;;;;;;5395516;26;20118;-80
2024/05/03 09:50:18;;;;;;;7.45;1.90;;;;;;;;;;5366981;26;19995;-81
2024/05/03 09:52:54;;;;;;;4.05;1.63;;;;;;;;;;5394623;26;20000;-82
2024/05/03 09:55:35;;;;;;;5.57;1.58;;;;;;;;;;5425918;26;20003;-80
2024/05/03 09:58:06;;;;;;;5.88;2.60;;;;;;;;;;5395012;26;19991;-84
2024/05/03 10:00:33;;;;;;;4.90;1.85;;;;;;;;;;5393489;26;20006;-83
2024/05/03 10:03:22;;;;;;;3.60;1.70;;;;;;;;;;5364588;26;20014;-85
2024/05/03 10:05:48;;;;;;;6.72;2.15;;;;;;;;;;5392380;26;20101;-84
2024/05/03 10:08:14;;;;;;;7.28;1.70;;;;;;;;;;5362685;26;19999;-81
2024/05/03 10:10:41;;;;;;;5.13;1.98;;;;;;;;;;5364922;26;20000;-82
2024/05/03 10:13:10;;;;;;;5.53;1.70;;;;;;;;;;5392622;26;19995;-83
2024/05/03 10:15:38;;;;;;;7.50;2.03;;;;;;;;;;5423282;26;20458;-81
2024/05/03 10:18:06;;;;;;;6.22;2.10;;;;;;;;;;5423958;26;19996;-85
2024/05/03 10:20:33;;;;;;;5.07;2.00;;;;;;;;;;5422247;26;20072;-80
2024/05/03 10:23:01;;;;;;;10.73;2.03;;;;;;;;;;5391671;26;20042;-83
2024/05/03 10:25:28;;;;;;;7.97;1.58;;;;;;;;;;5391140;26;20442;-81
2024/05/03 10:27:55;;;;;;;5.45;1.88;;;;;;;;;;5388269;26;20071;-82
2024/05/03 10:30:22;;;;;;;4.13;1.80;;;;;;;;;;5390512;26;20007;-81
2024/05/03 10:32:51;;;;;;;5.07;1.70;;;;;;;;;;5421663;26;20570;-81
2024/05/03 10:35:27;;;;;;;7.03;2.13;;;;;;;;;;5390444;26;20510;-86
2024/05/03 10:38:01;;;;;;;9.82;2.00;;;;;;;;;;5394137;26;19995;-85
2024/05/03 10:40:28;;;;;;;9.38;2.70;;;;;;;;;;5427520;26;20024;-91
2024/05/03 10:42:55;;;;;;;5.10;1.77;;;;;;;;;;5394399;26;19996;-84
2024/05/03 10:45:22;;;;;;;5.25;2.30;;;;;;;;;;5424310;26;19992;-86
2024/05/03 10:47:48;;;;;;;4.80;1.73;;;;;;;;;;5425888;26;20037;-85
2024/05/03 10:50:14;;;;;;;7.07;1.65;;;;;;;;;;5395629;26;19995;-87
2024/05/03 10:52:43;;;;;;;5.47;2.33;;;;;;;;;;5398511;26;19999;-86
2024/05/03 10:55:09;;;;;;;3.70;1.73;;;;;;;;;;5430396;26;19995;-86
2024/05/03 10:57:39;;;;;;;4.57;1.67;;;;;;;;;;5398824;26;20010;-86
2024/05/03 11:00:20;;;;;;;4.70;1.88;;;;;;;;;;5428903;26;20003;-84
2024/05/03 11:02:47;;;;;;;7.47;1.95;;;;;;;;;;5394722;26;20002;-82
2024/05/03 11:05:14;;;;;;;4.53;1.70;;;;;;;;;;5429080;26;19992;-83
2024/05/03 11:07:41;;;;;;;4.70;2.10;;;;;;;;;;5427097;26;20016;-83
2024/05/03 11:10:08;;;;;;;5.72;2.00;;;;;;;;;;5428494;26;20035;-83
2024/05/03 11:12:35;;;;;;;6.50;1.92;;;;;;;;;;5430627;26;19995;-86
2024/05/03 11:15:02;;;;;;;5.45;2.40;;;;;;;;;;5434120;26;20003;-79
2024/05/03 11:17:29;;;;;;;3.65;1.83;;;;;;;;;;5435421;26;20031;-80
2024/05/03 11:20:00;;;;;;;4.68;2.00;;;;;;;;;;5433793;26;20027;-81
2024/05/03 11:22:29;;;;;;;4.93;2.20;;;;;;;;;;5434503;26;20006;-85
2024/05/03 11:25:01;;;;;;;2.05;1.70;;;;;;;;;;5401686;26;20023;-81
2024/05/03 11:27:27;;;;;;;4.72;1.75;;;;;;;;;;5398506;26;19998;-87
2024/05/03 11:29:56;;;;;;;6.43;2.10;;;;;;;;;;5358806;26;20070;-88
2024/05/03 11:32:31;;;;;;;5.25;1.73;;;;;;;;;;5356950;26;20054;-87
2024/05/03 11:35:00;;;;;;;3.72;1.67;;;;;;;;;;5357074;26;20044;-86
2024/05/03 11:37:28;;;;;;;5.30;1.70;;;;;;;;;;5359075;26;20000;-87
2024/05/03 11:39:59;;;;;;;7.25;2.58;;;;;;;;;;5357876;26;20019;-86
2024/05/03 11:42:25;;;;;;;4.60;2.00;;;;;;;;;;5358538;26;20104;-83
2024/05/03 11:44:51;;;;;;;4.75;2.10;;;;;;;;;;5358017;26;20012;-86
2024/05/03 11:47:17;;;;;;;2.58;1.70;;;;;;;;;;5358681;26;19997;-85
2024/05/03 11:49:43;;;;;;;4.85;1.95;;;;;;;;;;5356411;26;20001;-82
2024/05/03 11:52:10;;;;;;;5.53;2.05;;;;;;;;;;5360641;26;20347;-90
2024/05/03 11:54:37;;;;;;;3.33;1.63;;;;;;;;;;5358061;26;20001;-88
2024/05/03 11:57:03;;;;;;;3.83;1.48;;;;;;;;;;5361232;26;20008;-82
2024/05/03 11:59:29;;;;;;;3.13;1.38;;;;;;;;;;5362176;26;20468;-90
2024/05/03 12:01:55;;;;;;;5.43;2.08;;;;;;;;;;5366479;26;19989;-91
2024/05/03 12:04:21;;;;;;;6.82;2.15;;;;;;;;;;5359400;26;20052;-87
2024/05/03 12:06:47;;;;;;;4.97;1.88;;;;;;;;;;5358239;26;19993;-89
2024/05/03 12:09:13;;;;;;;3.13;1.88;;;;;;;;;;5354660;26;20496;-88
2024/05/03 12:11:40;;;;;;;4.70;1.80;;;;;;;;;;5358342;26;20279;-88
2024/05/03 12:14:06;;;;;;;7.25;1.95;;;;;;;;;;5355474;26;19997;-88
2024/05/03 12:16:32;;;;;;;2.33;1.75;;;;;;;;;;5357651;26;19997;-88
2024/05/03 12:18:59;;;;;;;5.82;1.88;;;;;;;;;;5354977;26;20007;-88
2024/05/03 12:21:25;;;;;;;7.93;1.73;;;;;;;;;;5357546;26;20062;-84
2024/05/03 12:23:51;;;;;;;6.07;1.98;;;;;;;;;;5358477;26;20075;-88
2024/05/03 12:26:17;;;;;;;7.00;1.90;;;;;;;;;;5360143;26;19993;-85
2024/05/03 12:28:43;;;;;;;6.35;2.00;;;;;;;;;;5357613;26;19996;-86
2024/05/03 12:31:10;;;;;;;7.93;2.65;;;;;;;;;;5327091;26;20005;-87
2024/05/03 12:33:37;;;;;;;6.18;1.75;;;;;;;;;;5357928;26;19996;-85
2024/05/03 12:36:04;;;;;;;5.72;1.92;;;;;;;;;;5358450;26;20003;-84
2024/05/03 12:38:30;;;;;;;3.90;1.60;;;;;;;;;;5358762;26;20075;-87
2024/05/03 12:40:57;;;;;;;3.33;1.67;;;;;;;;;;5357331;26;20008;-86
2024/05/03 12:43:28;;;;;;;5.20;2.00;;;;;;;;;;5361617;26;20033;-83
2024/05/03 12:46:02;;;;;;;6.32;2.00;;;;;;;;;;5365100;26;19985;-83
2024/05/03 12:48:29;;;;;;;7.03;1.85;;;;;;;;;;5366303;26;19993;-79
2024/05/03 12:51:12;;;;;;;4.30;1.90;;;;;;;;;;5364113;26;20057;-83
2024/05/03 12:53:41;;;;;;;3.15;1.70;;;;;;;;;;5361102;26;20008;-88
2024/05/03 12:56:08;;;;;;;5.47;1.88;;;;;;;;;;5360942;26;20005;-87
2024/05/03 12:58:34;;;;;;;3.20;1.60;;;;;;;;;;5360906;26;20450;-87
2024/05/03 13:01:01;;;;;;;8.95;1.83;;;;;;;;;;5364089;26;20000;-87
2024/05/03 13:03:28;;;;;;;4.22;1.50;;;;;;;;;;5360795;26;19997;-87
2024/05/03 13:05:55;;;;;;;7.05;1.95;;;;;;;;;;5354056;26;20001;-89
2024/05/03 13:08:21;;;;;;;9.90;1.80;;;;;;;;;;5363765;26;20020;-90
2024/05/03 13:13:39;;;;;;;4.70;1.90;;;;;;;;;;5358530;26;20004;-80
2024/05/03 13:16:06;;;;;;;4.45;1.85;;;;;;;;;;5361023;26;20001;-86
2024/05/03 13:18:33;;;;;;;6.90;1.98;;;;;;;;;;5360149;26;20008;-90
2024/05/03 13:20:59;;;;;;;4.43;1.90;;;;;;;;;;5358879;26;19993;-89
2024/05/03 13:23:25;;;;;;;2.15;1.65;;;;;;;;;;5359389;26;19993;-89
2024/05/03 13:25:52;;;;;;;6.43;1.98;;;;;;;;;;5360851;26;19997;-91
2024/05/03 13:28:18;;;;;;;3.30;1.75;;;;;;;;;;5380212;26;20006;-89
2024/05/03 13:30:44;;;;;;;6.40;2.00;;;;;;;;;;5401312;26;20011;-88
2024/05/03 13:33:10;;;;;;;3.58;2.15;;;;;;;;;;5430431;26;20042;-88
2024/05/03 13:35:36;;;;;;;5.82;2.22;;;;;;;;;;5429422;26;20049;-82
2024/05/03 13:38:04;;;;;;;4.68;1.80;;;;;;;;;;5427250;26;19995;-90
2024/05/03 13:40:30;;;;;;;6.47;1.83;;;;;;;;;;5427437;26;19996;-89
2024/05/03 13:42:58;;;;;;;5.15;2.22;;;;;;;;;;5429509;26;19992;-91
2024/05/03 13:45:24;;;;;;;6.10;2.08;;;;;;;;;;5428445;26;20019;-90
2024/05/03 13:47:51;;;;;;;3.60;1.85;;;;;;;;;;5399214;26;20005;-88
2024/05/03 13:50:17;;;;;;;3.90;1.80;;;;;;;;;;5429336;26;20440;-90
2024/05/03 13:52:43;;;;;;;6.88;2.10;;;;;;;;;;5427421;26;20041;-89
2024/05/03 13:55:14;;;;;;;5.03;2.10;;;;;;;;;;5400197;26;20011;-91
2024/05/03 13:57:40;;;;;;;6.95;1.95;;;;;;;;;;5429895;26;20006;-86
2024/05/03 14:00:06;;;;;;;5.63;2.10;;;;;;;;;;5400733;26;19996;-91
2024/05/03 14:02:33;;;;;;;3.55;1.65;;;;;;;;;;5426406;26;19999;-89
2024/05/03 14:04:59;;;;;;;11.13;2.00;;;;;;;;;;5429539;26;20015;-91
2024/05/03 14:07:25;;;;;;;5.07;1.77;;;;;;;;;;5428295;26;20011;-91
2024/05/03 14:09:51;;;;;;;4.43;1.55;;;;;;;;;;5428026;26;19991;-89
2024/05/03 14:12:17;;;;;;;9.98;1.80;;;;;;;;;;5427895;26;20007;-82
2024/05/03 14:14:44;;;;;;;4.25;1.60;;;;;;;;;;5430524;26;19995;-89
2024/05/03 14:17:11;;;;;;;8.65;2.20;;;;;;;;;;5428901;26;20072;-90
2024/05/03 14:19:39;;;;;;;5.45;2.10;;;;;;;;;;5429594;26;19992;-91
2024/05/03 14:22:06;;;;;;;5.00;1.83;;;;;;;;;;5431880;26;19991;-85
2024/05/03 14:24:32;;;;;;;6.53;1.60;;;;;;;;;;5395620;26;19999;-91
2024/05/03 14:27:00;;;;;;;3.65;1.80;;;;;;;;;;5432990;26;20002;-91
2024/05/03 14:29:28;;;;;;;5.75;1.67;;;;;;;;;;5430658;26;20049;-90
2024/05/03 14:31:54;;;;;;;6.22;2.40;;;;;;;;;;5429591;26;20394;-92
2024/05/03 14:34:21;;;;;;;4.97;2.05;;;;;;;;;;5430442;26;19996;-93
2024/05/03 14:36:47;;;;;;;4.30;2.20;;;;;;;;;;5428061;26;20011;-90
2024/05/03 14:39:13;;;;;;;10.77;1.88;;;;;;;;;;5367519;26;20002;-88
2024/05/03 14:41:39;;;;;;;6.85;2.03;;;;;;;;;;5398057;26;19999;-88
2024/05/03 14:44:05;;;;;;;4.80;1.80;;;;;;;;;;5430207;26;19992;-90
2024/05/03 14:46:31;;;;;;;3.35;1.70;;;;;;;;;;5432289;26;20003;-88